KNGP/NGP METAR and TAF weather

Enter ICAO airport designator
Station Type Date Time Source
KNGP METAR 2021/01/27 12:56 UTC NOAA

KNGP 271256Z 01026G33KT 10SM OVC033 15/07 A3010 RMK AO2 PK WND 02035/1228 SLP192 T01500067 VISNO $


Station Type Date Time Source
KNGP Decoded METAR 2021/01/27 12:56 UTC NOAA

CORPUS CHRISTI NAVAL AIR STN, TX, United States (KNGP) 27-41N 097-17W
Jan 27, 2021 - 07:56 AM EST / 2021.01.27 1256 UTC
Wind: from the N (010 degrees) at 30 MPH (26 KT) gusting to 38 MPH (33 KT):0
Visibility: 10 mile(s):0
Sky conditions: overcast
Temperature: 59.0 F (15.0 C)
Dew Point: 44.1 F (6.7 C)
Relative Humidity: 57%
Pressure (altimeter): 30.1 in. Hg (1019 hPa)
ob: KNGP 271256Z 01026G33KT 10SM OVC033 15/07 A3010 RMK AO2 PK WND 02035/1228 SLP192 T01500067 VISNO
cycle: 13

Station Type Date Time Source
KNGP TAF 2021/01/27 10:07 UTC NOAA

TAF
AMD KNGP 2710/2807 35013KT 6000 BR VCSH BKN005 OVC010 QNH2997INS
TEMPO 2710/2711 1600 SHRA BR OVC002
FM271100 36020G28KT 9999 VCSH BKN020 OVC040 510005 QNH3001INS
TEMPO 2711/2712 8000 -SHRA
FM271300 01025G35KT 9999 BKN035 OVC060 540005 QNH3010INS
FM271500 36020G28KT 9999 SCT060 BKN300 510005 QNH3017INS
FM271900 35015G21KT 9999 BKN300 500000 QNH3020INS
FM272300 02013KT 9999 BKN300 QNH3025INS
FM280200 03010KT 9999 BKN300 QNH3034INS AUTOMATED SENSOR METWATCH 2710 TIL 2712 T13/2714Z T21/2720Z
AMD 1010 FN20044

Example: see airport list